Absecon Highlands, New Jersey
Current Conditions -  °F | °C
As of 6:54 PM on Wednesday 22 Oct 2014 (Local Time) from KACY Reporting Station
Light Rain Light Rain  
Wind Chill: 53°   Ceiling: 1900
Heat Index: 53°   Visibility: 10mi
Dew Point: 50°   Wind: 17mph
Humidity: 89%   Direction: 340°NNW
Pressure: 29.77"   Gusts: NA
Location:  39.4315°N, 74.5003°W
Report Text: KACY 222254Z 34015KT 10SM -RA OVC019 12/10 A2977 RMK AO2 RAB09 SLP080 P0001 T01170100
Loading
Personal Weather Stations






























Interactive Weather Map
Tropical Storm Tracking
New forecast layout! Learn more

10-Day Weather Forecast

Advertisements
Track Severe Weather on mobile